createdAt,value
2019-01-02T00:00:17.776Z,0
2019-01-02T00:01:17.726Z,0
2019-01-02T00:02:17.328Z,0
2019-01-02T00:03:19.938Z,0
2019-01-02T00:04:18.914Z,0
2019-01-02T00:05:19.676Z,0
2019-01-02T00:06:22.412Z,0
2019-01-02T00:07:20.952Z,0
2019-01-02T00:08:22.094Z,0
2019-01-02T00:09:24.916Z,0
2019-01-02T00:10:23.129Z,0
2019-01-02T00:11:26.473Z,0
2019-01-02T00:12:25.844Z,0
2019-01-02T00:13:26.273Z,0
2019-01-02T00:14:29.472Z,0
2019-01-02T00:15:28.835Z,0
2019-01-02T00:16:30.386Z,0
2019-01-02T00:17:32.568Z,0
2019-01-02T00:18:32.186Z,0
2019-01-02T00:19:33.497Z,0
2019-01-02T00:20:34.247Z,0
2019-01-02T00:21:34.674Z,0
2019-01-02T00:22:37.382Z,0
2019-01-02T00:23:36.252Z,0
2019-01-02T00:24:36.960Z,0
2019-01-02T00:25:39.565Z,0
2019-01-02T00:26:38.007Z,0
2019-01-02T00:27:38.990Z,0
2019-01-02T00:28:40.510Z,0
2019-01-02T00:29:40.326Z,0
2019-01-02T00:30:42.265Z,0
2019-01-02T00:31:42.409Z,0
2019-01-02T00:32:42.643Z,0
2019-01-02T00:33:45.937Z,0
2019-01-02T00:34:44.727Z,0
2019-01-02T00:35:45.158Z,0
2019-01-02T00:36:46.800Z,0
2019-01-02T00:37:45.630Z,0
2019-01-02T00:38:48.272Z,0
2019-01-02T00:39:47.035Z,0
2019-01-02T00:40:48.026Z,0
2019-01-02T00:41:50.486Z,0
2019-01-02T00:42:50.425Z,0
2019-01-02T00:43:51.146Z,0
2019-01-02T00:44:54.454Z,0
2019-01-02T00:45:53.341Z,0
2019-01-02T00:46:56.641Z,0
2019-01-02T00:47:55.929Z,0
2019-01-02T00:48:55.905Z,0
2019-01-02T00:49:58.110Z,0
2019-01-02T00:50:57.097Z,0
2019-01-02T00:51:57.814Z,0
2019-01-02T00:52:59.191Z,0
2019-01-02T00:53:58.489Z,0
2019-01-02T00:55:01.283Z,0
2019-01-02T00:55:59.940Z,0
2019-01-02T00:57:00.387Z,0
2019-01-02T00:58:02.427Z,0
2019-01-02T00:59:02.135Z,0
2019-01-02T01:00:04.386Z,0
2019-01-02T01:01:03.433Z,0
2019-01-02T01:02:03.582Z,0
2019-01-02T01:03:05.506Z,0
2019-01-02T01:04:05.232Z,0
2019-01-02T01:05:08.104Z,0
2019-01-02T01:06:07.178Z,0
2019-01-02T01:07:07.643Z,0
2019-01-02T01:08:09.882Z,0
2019-01-02T01:09:08.583Z,0
2019-01-02T01:10:12.392Z,0
2019-01-02T01:11:11.370Z,0
2019-01-02T01:12:11.805Z,0
2019-01-02T01:13:15.005Z,0
2019-01-02T01:14:13.203Z,0
2019-01-02T01:15:16.497Z,0
2019-01-02T01:16:15.428Z,0
2019-01-02T01:17:16.148Z,0
2019-01-02T01:18:19.308Z,0
2019-01-02T01:19:17.949Z,0
2019-01-02T01:20:18.396Z,0
2019-01-02T01:21:20.263Z,0
2019-01-02T01:22:20.296Z,0
2019-01-02T01:23:21.577Z,0
2019-01-02T01:24:22.891Z,0
2019-01-02T01:25:22.730Z,0
2019-01-02T01:26:23.889Z,0
2019-01-02T01:27:25.046Z,0
2019-01-02T01:28:25.884Z,0
2019-01-02T01:29:27.664Z,0
2019-01-02T01:30:27.648Z,0
2019-01-02T01:31:28.107Z,0
2019-01-02T01:32:30.692Z,0
2019-01-02T01:33:30.129Z,0
2019-01-02T01:34:30.282Z,0
2019-01-02T01:35:31.747Z,0
2019-01-02T01:36:31.898Z,0
2019-01-02T01:37:32.601Z,0
2019-01-02T01:38:34.308Z,0
2019-01-02T01:39:34.490Z,0
2019-01-02T01:40:34.923Z,0
2019-01-02T01:41:36.213Z,0
2019-01-02T01:42:36.699Z,0
2019-01-02T01:43:38.250Z,0
2019-01-02T01:44:40.365Z,0
2019-01-02T01:45:39.221Z,0
2019-01-02T01:46:40.230Z,0
2019-01-02T01:47:42.853Z,0
2019-01-02T01:48:41.379Z,0
2019-01-02T01:49:42.685Z,0
2019-01-02T01:50:44.380Z,0
2019-01-02T01:51:44.125Z,0
2019-01-02T01:52:44.842Z,0
2019-01-02T01:53:47.054Z,0
2019-01-02T01:54:46.429Z,0
2019-01-02T01:55:46.865Z,0
2019-01-02T01:56:50.027Z,0
2019-01-02T01:57:49.821Z,0
2019-01-02T01:58:49.248Z,0
2019-01-02T01:59:52.757Z,0
2019-01-02T02:00:52.715Z,0
2019-01-02T02:01:52.869Z,0
2019-01-02T02:02:56.161Z,0
2019-01-02T02:03:54.420Z,0
2019-01-02T02:04:55.142Z,0
2019-01-02T02:05:57.684Z,0
2019-01-02T02:06:56.444Z,0
2019-01-02T02:07:57.427Z,0
2019-01-02T02:08:58.850Z,0
2019-01-02T02:09:58.409Z,0
2019-01-02T02:10:59.124Z,0
2019-01-02T02:12:00.463Z,0
2019-01-02T02:13:00.339Z,0
2019-01-02T02:14:01.069Z,0
2019-01-02T02:15:02.449Z,0
2019-01-02T02:16:03.466Z,0
2019-01-02T02:17:05.105Z,0
2019-01-02T02:18:05.119Z,0
2019-01-02T02:19:05.833Z,0
2019-01-02T02:20:08.406Z,0
2019-01-02T02:21:06.808Z,0
2019-01-02T02:22:07.257Z,0
2019-01-02T02:23:10.178Z,0
2019-01-02T02:24:08.708Z,0
2019-01-02T02:25:10.130Z,0
2019-01-02T02:26:12.057Z,0
2019-01-02T02:27:11.741Z,0
2019-01-02T02:28:11.895Z,0
2019-01-02T02:29:14.941Z,0
2019-01-02T02:30:14.913Z,0
2019-01-02T02:31:16.634Z,0
2019-01-02T02:32:16.609Z,0
2019-01-02T02:33:17.210Z,0
2019-01-02T02:34:19.230Z,0
2019-01-02T02:35:17.561Z,0
2019-01-02T02:36:20.419Z,0
2019-01-02T02:37:19.754Z,0
2019-01-02T02:38:23.343Z,0
2019-01-02T02:39:24.205Z,0
2019-01-02T02:40:24.239Z,0
2019-01-02T02:41:26.979Z,0
2019-01-02T02:42:27.366Z,0
2019-01-02T02:43:26.612Z,0
2019-01-02T02:44:29.299Z,0
2019-01-02T02:45:30.790Z,0
2019-01-02T02:46:29.633Z,0
2019-01-02T02:47:32.298Z,0
2019-01-02T02:48:32.479Z,0
2019-01-02T02:49:32.315Z,0
2019-01-02T02:50:34.646Z,0
2019-01-02T02:51:35.637Z,0
2019-01-02T02:52:34.722Z,0
2019-01-02T02:53:36.580Z,0
2019-01-02T02:54:25.468Z,0
2019-01-02T02:55:25.958Z,0
2019-01-02T02:56:26.789Z,0
2019-01-02T02:57:26.196Z,0
2019-01-02T02:58:28.939Z,0
2019-01-02T02:59:30.119Z,0
2019-01-02T03:00:28.760Z,0
2019-01-02T03:01:31.542Z,0
2019-01-02T03:02:29.987Z,0
2019-01-02T03:03:30.748Z,0
2019-01-02T03:04:32.753Z,0
2019-01-02T03:05:32.466Z,0
2019-01-02T03:06:35.840Z,0
2019-01-02T03:07:36.605Z,0
2019-01-02T03:08:35.330Z,0
2019-01-02T03:09:37.067Z,0
2019-01-02T03:10:38.989Z,0
2019-01-02T03:11:37.859Z,0
2019-01-02T03:12:39.100Z,0
2019-01-02T03:13:41.087Z,0
2019-01-02T03:14:40.015Z,0
2019-01-02T03:15:42.531Z,0
2019-01-02T03:16:43.651Z,0
2019-01-02T03:17:43.358Z,0
2019-01-02T03:18:45.653Z,0
2019-01-02T03:19:46.940Z,0
2019-01-02T03:20:45.604Z,0
2019-01-02T03:21:48.165Z,0
2019-01-02T03:22:49.840Z,0
2019-01-02T03:23:48.547Z,0
2019-01-02T03:24:51.300Z,0
2019-01-02T03:25:52.240Z,0
2019-01-02T03:26:51.357Z,0
2019-01-02T03:27:53.963Z,0
2019-01-02T03:28:55.590Z,0
2019-01-02T03:29:54.718Z,0
2019-01-02T03:30:57.885Z,0
2019-01-02T03:31:59.143Z,0
2019-01-02T03:32:59.086Z,0
2019-01-02T03:33:58.777Z,0
2019-01-02T03:34:58.744Z,0
2019-01-02T03:35:59.880Z,0
2019-01-02T03:37:00.852Z,0
2019-01-02T03:38:01.004Z,0
2019-01-02T03:39:01.974Z,0
2019-01-02T03:40:02.665Z,0
2019-01-02T03:41:03.358Z,0
2019-01-02T03:42:03.608Z,0
2019-01-02T03:43:04.299Z,0
2019-01-02T03:44:04.714Z,0
2019-01-02T03:45:05.404Z,0
2019-01-02T03:46:06.509Z,0
2019-01-02T03:47:07.199Z,0
2019-01-02T03:48:07.615Z,0
2019-01-02T03:49:08.032Z,0
2019-01-02T03:50:09.445Z,0
2019-01-02T03:51:10.417Z,0
2019-01-02T03:52:11.663Z,0
2019-01-02T03:53:12.082Z,0
2019-01-02T03:54:12.218Z,0
2019-01-02T03:55:13.467Z,0
2019-01-02T03:56:13.321Z,0
2019-01-02T03:57:14.735Z,0
2019-01-02T03:58:16.259Z,0
2019-01-02T03:59:16.676Z,0
2019-01-02T04:00:16.813Z,0
2019-01-02T04:01:17.512Z,0
2019-01-02T04:02:17.925Z,0
2019-01-02T04:03:18.617Z,0
2019-01-02T04:04:19.585Z,0
2019-01-02T04:05:19.721Z,0
2019-01-02T04:06:20.274Z,0
2019-01-02T04:07:20.686Z,0
2019-01-02T04:08:21.824Z,0
2019-01-02T04:09:22.983Z,0
2019-01-02T04:10:23.406Z,0
2019-01-02T04:11:24.098Z,0
2019-01-02T04:12:25.069Z,0
2019-01-02T04:13:25.213Z,0
2019-01-02T04:14:26.903Z,0
2019-01-02T04:15:27.318Z,0
2019-01-02T04:16:28.169Z,0
2019-01-02T04:17:28.862Z,0
2019-01-02T04:18:29.276Z,0
2019-01-02T04:19:29.967Z,0
2019-01-02T04:20:30.381Z,0
2019-01-02T04:21:30.803Z,0
2019-01-02T04:22:32.537Z,0
2019-01-02T04:23:33.230Z,0
2019-01-02T04:24:33.242Z,0
2019-01-02T04:25:33.656Z,0
2019-01-02T04:26:34.755Z,0
2019-01-02T04:27:35.175Z,0
2019-01-02T04:28:36.143Z,0
2019-01-02T04:29:37.394Z,0
2019-01-02T04:30:38.638Z,0
2019-01-02T04:31:39.330Z,0
2019-01-02T04:32:39.744Z,0
2019-01-02T04:33:40.438Z,0
2019-01-02T04:34:41.407Z,0
2019-01-02T04:35:42.100Z,0
2019-01-02T04:36:42.924Z,0
2019-01-02T04:37:43.620Z,0
2019-01-02T04:38:44.034Z,0
2019-01-02T04:39:44.449Z,0
2019-01-02T04:40:46.145Z,0
2019-01-02T04:41:46.118Z,0
2019-01-02T04:42:46.812Z,0
2019-01-02T04:43:47.505Z,0
2019-01-02T04:44:48.198Z,0
2019-01-02T04:45:49.168Z,0
2019-01-02T04:46:49.570Z,0
2019-01-02T04:47:49.990Z,0
2019-01-02T04:48:50.399Z,0
2019-01-02T04:49:50.812Z,0
2019-01-02T04:50:52.226Z,0
2019-01-02T04:51:53.645Z,0
2019-01-02T04:52:54.094Z,0
2019-01-02T04:53:55.065Z,0
2019-01-02T04:54:55.760Z,0
2019-01-02T04:55:56.461Z,0
2019-01-02T04:56:57.573Z,0
2019-01-02T04:57:57.711Z,0
2019-01-02T04:58:59.236Z,0
2019-01-02T04:59:58.931Z,0
2019-01-02T05:01:00.176Z,0
2019-01-02T05:01:59.867Z,0
2019-01-02T05:03:00.291Z,0
2019-01-02T05:04:00.429Z,0
2019-01-02T05:05:01.122Z,0
2019-01-02T05:06:01.563Z,0
2019-01-02T05:07:02.154Z,0
2019-01-02T05:08:03.128Z,0
2019-01-02T05:09:03.549Z,4
2019-01-02T05:10:03.958Z,0
2019-01-02T05:11:04.374Z,0
2019-01-02T05:12:05.509Z,0
2019-01-02T05:13:06.202Z,0
2019-01-02T05:14:07.617Z,0
2019-01-02T05:15:09.143Z,0
2019-01-02T05:16:09.667Z,0
2019-01-02T05:17:10.353Z,0
2019-01-02T05:18:11.044Z,0
2019-01-02T05:19:11.741Z,0
2019-01-02T05:20:12.433Z,0
2019-01-02T05:21:13.408Z,0
2019-01-02T05:22:14.147Z,0
2019-01-02T05:23:15.616Z,0
2019-01-02T05:24:16.029Z,0
2019-01-02T05:25:17.004Z,0
2019-01-02T05:26:17.421Z,0
2019-01-02T05:27:18.539Z,0
2019-01-02T05:28:19.507Z,0
2019-01-02T05:29:20.206Z,0
2019-01-02T05:30:21.188Z,0
2019-01-02T05:31:21.877Z,0
2019-01-02T05:32:22.848Z,0
2019-01-02T05:33:23.540Z,0
2019-01-02T05:34:23.792Z,0
2019-01-02T05:35:24.481Z,0
2019-01-02T05:36:24.905Z,0
2019-01-02T05:37:25.728Z,0
2019-01-02T05:38:26.143Z,0
2019-01-02T05:39:27.124Z,0
2019-01-02T05:40:27.825Z,0
2019-01-02T05:41:28.848Z,0
2019-01-02T05:42:29.543Z,0
2019-01-02T05:43:30.238Z,0
2019-01-02T05:44:30.373Z,0
2019-01-02T05:45:31.063Z,0
2019-01-02T05:46:31.764Z,0
2019-01-02T05:47:32.592Z,0
2019-01-02T05:48:34.121Z,0
2019-01-02T05:49:33.810Z,0
2019-01-02T05:50:34.948Z,0
2019-01-02T05:51:36.921Z,0
2019-01-02T05:52:36.613Z,0
2019-01-02T05:53:37.582Z,0
2019-01-02T05:54:39.103Z,0
2019-01-02T05:55:39.796Z,0
2019-01-02T05:56:40.215Z,0
2019-01-02T05:57:42.211Z,0
2019-01-02T05:58:42.621Z,0
2019-01-02T05:59:43.036Z,0
2019-01-02T06:00:43.448Z,0
2019-01-02T06:01:43.860Z,0
2019-01-02T06:02:44.012Z,0
2019-01-02T06:03:45.704Z,0
2019-01-02T06:04:47.870Z,0
2019-01-02T06:05:48.286Z,0
2019-01-02T06:06:48.701Z,0
2019-01-02T06:07:49.898Z,0
2019-01-02T06:08:50.589Z,0
2019-01-02T06:09:51.001Z,0
2019-01-02T06:10:52.534Z,0
2019-01-02T06:11:53.229Z,0
2019-01-02T06:12:53.937Z,0
2019-01-02T06:13:54.350Z,0
2019-01-02T06:14:55.046Z,0
2019-01-02T06:15:55.739Z,0
2019-01-02T06:16:56.433Z,0
2019-01-02T06:17:56.994Z,0
2019-01-02T06:18:57.694Z,0
2019-01-02T06:19:58.385Z,0
2019-01-02T06:20:59.079Z,0
2019-01-02T06:22:00.600Z,0
2019-01-02T06:23:00.572Z,0
2019-01-02T06:24:01.264Z,0
2019-01-02T06:25:02.801Z,0
2019-01-02T06:26:03.110Z,0
2019-01-02T06:27:03.353Z,0
2019-01-02T06:28:04.049Z,0
2019-01-02T06:29:04.234Z,0
2019-01-02T06:30:04.648Z,0
2019-01-02T06:31:05.786Z,4
2019-01-02T06:32:07.755Z,4
2019-01-02T06:33:08.449Z,4
2019-01-02T06:34:09.143Z,0
2019-01-02T06:35:09.833Z,0
2019-01-02T06:36:10.524Z,4
2019-01-02T06:37:11.609Z,4
2019-01-02T06:38:11.728Z,4
2019-01-02T06:39:12.419Z,8
2019-01-02T06:40:13.387Z,4
2019-01-02T06:41:13.813Z,4
2019-01-02T06:42:15.228Z,8
2019-01-02T06:43:16.207Z,8
2019-01-02T06:44:17.186Z,8
2019-01-02T06:45:18.597Z,12
2019-01-02T06:46:20.122Z,16
2019-01-02T06:47:19.790Z,16
2019-01-02T06:48:20.063Z,20
2019-01-02T06:49:20.759Z,20
2019-01-02T06:50:21.496Z,28
2019-01-02T06:51:21.632Z,28
2019-01-02T06:52:22.607Z,32
2019-01-02T06:53:22.739Z,40
2019-01-02T06:54:23.877Z,44
2019-01-02T06:55:24.293Z,56
2019-01-02T06:56:24.986Z,64
2019-01-02T06:57:25.402Z,68
2019-01-02T06:58:25.992Z,80
2019-01-02T06:59:27.684Z,88
2019-01-02T07:00:27.826Z,96
2019-01-02T07:01:29.246Z,108
2019-01-02T07:02:29.662Z,116
2019-01-02T07:03:29.840Z,124
2019-01-02T07:04:31.533Z,136
2019-01-02T07:05:33.110Z,148
2019-01-02T07:06:32.802Z,164
2019-01-02T07:07:33.228Z,176
2019-01-02T07:08:34.336Z,192
2019-01-02T07:09:35.309Z,204
2019-01-02T07:10:36.280Z,216
2019-01-02T07:11:36.698Z,228
2019-01-02T07:12:36.838Z,244
2019-01-02T07:13:38.254Z,260
2019-01-02T07:14:38.947Z,268
2019-01-02T07:15:39.641Z,288
2019-01-02T07:16:40.389Z,308
2019-01-02T07:17:41.542Z,320
2019-01-02T07:18:42.390Z,312
2019-01-02T07:19:43.084Z,308
2019-01-02T07:20:43.222Z,308
2019-01-02T07:21:43.642Z,316
2019-01-02T07:22:44.615Z,320
2019-01-02T07:23:45.910Z,324
2019-01-02T07:24:46.892Z,332
2019-01-02T07:25:48.141Z,340
2019-01-02T07:26:50.254Z,352
2019-01-02T07:27:50.393Z,368
2019-01-02T07:28:51.076Z,384
2019-01-02T07:29:52.324Z,396
2019-01-02T07:30:53.019Z,408
2019-01-02T07:31:52.715Z,416
2019-01-02T07:32:53.414Z,432
2019-01-02T07:33:53.826Z,436
2019-01-02T07:34:54.243Z,440
2019-01-02T07:35:55.937Z,436
2019-01-02T07:36:56.081Z,424
2019-01-02T07:37:56.523Z,420
2019-01-02T07:38:57.645Z,424
2019-01-02T07:39:58.341Z,428
2019-01-02T07:40:58.488Z,432
2019-01-02T07:41:59.180Z,432
2019-01-02T07:43:00.874Z,424
2019-01-02T07:44:01.570Z,412
2019-01-02T07:45:02.002Z,392
2019-01-02T07:46:02.426Z,392
2019-01-02T07:47:04.688Z,404
2019-01-02T07:48:05.123Z,428
2019-01-02T07:49:05.950Z,440
2019-01-02T07:50:06.645Z,436
2019-01-02T07:51:07.339Z,440
2019-01-02T07:52:07.479Z,432
2019-01-02T07:53:08.173Z,440
2019-01-02T07:54:08.313Z,440
2019-01-02T07:55:09.733Z,440
2019-01-02T07:56:10.168Z,436
2019-01-02T07:57:11.137Z,460
2019-01-02T07:58:12.122Z,496
2019-01-02T07:59:12.249Z,548
2019-01-02T08:00:13.225Z,604
2019-01-02T08:01:13.469Z,628
2019-01-02T08:02:14.166Z,636
2019-01-02T08:03:14.908Z,652
2019-01-02T08:04:15.327Z,680
2019-01-02T08:05:15.744Z,700
2019-01-02T08:06:17.440Z,724
2019-01-02T08:07:17.857Z,748
2019-01-02T08:08:18.549Z,768
2019-01-02T08:09:19.393Z,800
2019-01-02T08:10:19.538Z,828
2019-01-02T08:11:19.953Z,828
2019-01-02T08:12:21.092Z,812
2019-01-02T08:13:21.796Z,808
2019-01-02T08:14:22.491Z,856
2019-01-02T08:15:23.464Z,920
2019-01-02T08:16:24.161Z,992
2019-01-02T08:17:25.134Z,1044
2019-01-02T08:18:25.831Z,1116
2019-01-02T08:19:26.680Z,1244
2019-01-02T08:20:28.100Z,1328
2019-01-02T08:21:28.791Z,1348
2019-01-02T08:22:28.935Z,1324
2019-01-02T08:23:29.351Z,1328
2019-01-02T08:24:30.606Z,1352
2019-01-02T08:25:30.750Z,1384
2019-01-02T08:26:32.447Z,1396
2019-01-02T08:27:32.864Z,1324
2019-01-02T08:28:35.124Z,1260
2019-01-02T08:29:34.672Z,1204
2019-01-02T08:30:35.124Z,1196
2019-01-02T08:31:35.268Z,1188
2019-01-02T08:32:35.962Z,1180
2019-01-02T08:33:36.661Z,1208
2019-01-02T08:34:37.081Z,1240
2019-01-02T08:35:38.227Z,1268
2019-01-02T08:36:38.759Z,1328
2019-01-02T08:37:40.021Z,1432
2019-01-02T08:38:41.001Z,1512
2019-01-02T08:39:41.680Z,1516
2019-01-02T08:40:41.822Z,1512
2019-01-02T08:41:42.243Z,1532
2019-01-02T08:42:43.385Z,1524
2019-01-02T08:43:44.374Z,1556
2019-01-02T08:44:44.516Z,1640
2019-01-02T08:45:45.943Z,1612
2019-01-02T08:46:46.089Z,1364
2019-01-02T08:47:46.787Z,1020
2019-01-02T08:48:47.483Z,836
2019-01-02T08:49:48.032Z,632
2019-01-02T08:50:48.742Z,360
2019-01-02T08:51:49.544Z,280
2019-01-02T08:52:49.794Z,328
2019-01-02T08:53:50.495Z,424
2019-01-02T08:54:51.193Z,552
2019-01-02T08:55:51.879Z,760
2019-01-02T08:56:52.575Z,1084
2019-01-02T08:57:53.270Z,1220
2019-01-02T08:58:53.966Z,1224
2019-01-02T08:59:55.360Z,1312
2019-01-02T09:00:55.785Z,1436
2019-01-02T09:01:55.921Z,1584
2019-01-02T09:02:56.605Z,1672
2019-01-02T09:03:57.406Z,1764
2019-01-02T09:04:58.586Z,1820
2019-01-02T09:05:59.434Z,2016
2019-01-02T09:07:04.174Z,2020
2019-01-02T09:07:15.244Z,2016
2019-01-02T09:07:27.291Z,2024
2019-01-02T09:07:37.691Z,2028
2019-01-02T09:08:36.399Z,1988
2019-01-02T09:09:37.156Z,1928
2019-01-02T09:10:37.578Z,1956
2019-01-02T09:11:39.010Z,2052
2019-01-02T09:12:39.429Z,2172
2019-01-02T09:13:40.430Z,2468
2019-01-02T09:14:40.848Z,2752
2019-01-02T09:15:41.263Z,2560
2019-01-02T09:16:42.406Z,2528
2019-01-02T09:17:43.104Z,2732
2019-01-02T09:18:44.486Z,2744
2019-01-02T09:19:44.637Z,2508
2019-01-02T09:20:45.890Z,2132
2019-01-02T09:21:49.920Z,1980
2019-01-02T09:22:47.778Z,2228
2019-01-02T09:23:48.765Z,2720
2019-01-02T09:24:49.185Z,3040
2019-01-02T09:25:54.851Z,3376
2019-01-02T09:26:06.578Z,3512
2019-01-02T09:26:15.727Z,3624
2019-01-02T09:27:15.687Z,4044
2019-01-02T09:28:17.108Z,4180
2019-01-02T09:29:17.839Z,3636
2019-01-02T09:30:18.577Z,3408
2019-01-02T09:31:18.719Z,3620
2019-01-02T09:32:20.415Z,3784
2019-01-02T09:33:21.422Z,3492
2019-01-02T09:34:22.132Z,3244
2019-01-02T09:35:22.552Z,2940
2019-01-02T09:36:22.695Z,2588
2019-01-02T09:37:23.550Z,2516
2019-01-02T09:38:23.972Z,2452
2019-01-02T09:39:25.001Z,2824
2019-01-02T09:40:25.425Z,3112
2019-01-02T09:41:25.562Z,3136
2019-01-02T09:42:26.271Z,2948
2019-01-02T09:43:26.690Z,2552
2019-01-02T09:44:27.667Z,2504
2019-01-02T09:45:28.413Z,2608
2019-01-02T09:46:29.966Z,2212
2019-01-02T09:47:31.356Z,1492
2019-01-02T09:48:32.093Z,976
2019-01-02T09:49:32.021Z,628
2019-01-02T09:50:32.440Z,496
2019-01-02T09:51:39.740Z,580
2019-01-02T09:51:50.590Z,592
2019-01-02T09:52:02.783Z,604
2019-01-02T09:52:11.157Z,616
2019-01-02T09:53:10.521Z,856
2019-01-02T09:54:10.950Z,1232
2019-01-02T09:55:11.646Z,1660
2019-01-02T09:56:12.342Z,2176
2019-01-02T09:57:14.285Z,2456
2019-01-02T09:58:14.370Z,2632
2019-01-02T09:59:14.790Z,2396
2019-01-02T10:00:15.932Z,2212
2019-01-02T10:01:16.635Z,2008
2019-01-02T10:02:17.333Z,1800
2019-01-02T10:03:17.888Z,1672
2019-01-02T10:04:18.587Z,1552
2019-01-02T10:05:19.005Z,1468
2019-01-02T10:06:20.258Z,1484
2019-01-02T10:07:20.507Z,1548
2019-01-02T10:08:20.932Z,1760
2019-01-02T10:09:21.629Z,1932
2019-01-02T10:10:22.326Z,1880
2019-01-02T10:11:23.026Z,1988
2019-01-02T10:12:23.725Z,2204
2019-01-02T10:13:24.579Z,1796
2019-01-02T10:14:25.998Z,2220
2019-01-02T10:15:26.419Z,2572
2019-01-02T10:16:27.118Z,2700
2019-01-02T10:17:28.093Z,3180
2019-01-02T10:18:28.236Z,3304
2019-01-02T10:19:29.213Z,3244
2019-01-02T10:20:29.635Z,3020
2019-01-02T10:21:33.265Z,2868
2019-01-02T10:22:36.408Z,3220
2019-01-02T10:22:49.823Z,3212
2019-01-02T10:23:01.920Z,3156
2019-01-02T10:23:14.757Z,3184
2019-01-02T10:23:26.215Z,3348
2019-01-02T10:24:22.660Z,4964
2019-01-02T10:25:23.635Z,6448
2019-01-02T10:26:24.610Z,6276
2019-01-02T10:27:25.027Z,4472
2019-01-02T10:28:25.451Z,3520
2019-01-02T10:29:25.592Z,3260
2019-01-02T10:30:27.014Z,3800
2019-01-02T10:31:27.711Z,4496
2019-01-02T10:32:28.423Z,4684
2019-01-02T10:33:29.131Z,3876
2019-01-02T10:34:37.994Z,3360
2019-01-02T10:35:38.575Z,3392
2019-01-02T10:36:39.301Z,3136
2019-01-02T10:37:40.007Z,3240
2019-01-02T10:38:40.736Z,3848
2019-01-02T10:39:41.422Z,4340
2019-01-02T10:40:42.676Z,3904
2019-01-02T10:41:42.105Z,3564
2019-01-02T10:42:47.127Z,3092
2019-01-02T10:43:42.849Z,2820
2019-01-02T10:44:44.278Z,2932
2019-01-02T10:45:57.156Z,2968
2019-01-02T10:46:57.982Z,2752
2019-01-02T10:47:59.241Z,3144
2019-01-02T10:48:59.214Z,3524
2019-01-02T10:49:59.914Z,3848
2019-01-02T10:51:00.744Z,3676
2019-01-02T10:52:04.138Z,3372
2019-01-02T10:53:02.738Z,3856
2019-01-02T10:54:03.991Z,4056
2019-01-02T10:55:05.305Z,4412
2019-01-02T10:56:05.289Z,4380
2019-01-02T10:57:05.845Z,3972
2019-01-02T10:58:07.270Z,3192
2019-01-02T10:59:11.049Z,2728
2019-01-02T11:00:08.749Z,2588
2019-01-02T11:01:09.181Z,2488
2019-01-02T11:02:10.159Z,2356
2019-01-02T11:03:10.576Z,2376
2019-01-02T11:04:11.552Z,2488
2019-01-02T11:05:12.252Z,2572
2019-01-02T11:06:12.401Z,2436
2019-01-02T11:07:13.808Z,2444
2019-01-02T11:08:15.815Z,2484
2019-01-02T11:09:15.957Z,2556
2019-01-02T11:10:17.105Z,2588
2019-01-02T11:11:18.470Z,2696
2019-01-02T11:12:18.893Z,2872
2019-01-02T11:13:19.874Z,2836
2019-01-02T11:14:20.574Z,2620
2019-01-02T11:15:21.271Z,2648
2019-01-02T11:16:21.975Z,2792
2019-01-02T11:17:22.826Z,2784
2019-01-02T11:18:24.248Z,2668
2019-01-02T11:19:24.672Z,2840
2019-01-02T11:20:26.098Z,3024
2019-01-02T11:21:27.090Z,3160
2019-01-02T11:22:31.360Z,3224
2019-01-02T11:22:44.053Z,3232
2019-01-02T11:22:54.480Z,3256
2019-01-02T11:23:51.149Z,3540
2019-01-02T11:24:52.130Z,3744
2019-01-02T11:25:53.914Z,3820
2019-01-02T11:26:54.005Z,3908
2019-01-02T11:27:53.706Z,3596
2019-01-02T11:28:53.851Z,3320
2019-01-02T11:29:54.549Z,3108
2019-01-02T11:30:55.970Z,2980
2019-01-02T11:31:56.439Z,3008
2019-01-02T11:32:58.149Z,3280
2019-01-02T11:33:59.025Z,3560
2019-01-02T11:34:59.447Z,3860
2019-01-02T11:36:00.143Z,3836
2019-01-02T11:37:01.418Z,3632
2019-01-02T11:38:02.670Z,3212
2019-01-02T11:39:03.105Z,3016
2019-01-02T11:40:03.368Z,3256
2019-01-02T11:41:04.064Z,3528
2019-01-02T11:42:04.210Z,4216
2019-01-02T11:43:04.941Z,4924
2019-01-02T11:44:06.159Z,5564
2019-01-02T11:45:07.131Z,5552
2019-01-02T11:46:07.551Z,6044
2019-01-02T11:47:08.533Z,7064
2019-01-02T11:48:09.251Z,7916
2019-01-02T11:49:09.673Z,8064
2019-01-02T11:50:12.254Z,7224
2019-01-02T11:51:14.743Z,5460
2019-01-02T11:51:22.997Z,5408
2019-01-02T11:52:30.170Z,4980
2019-01-02T11:52:40.777Z,4884
2019-01-02T11:52:51.119Z,4800
2019-01-02T11:53:49.591Z,4644
2019-01-02T11:54:49.733Z,4372
2019-01-02T11:55:51.156Z,3800
2019-01-02T11:56:51.624Z,3568
2019-01-02T11:57:52.321Z,3532
2019-01-02T11:58:52.467Z,3628
2019-01-02T11:59:53.610Z,3880
2019-01-02T12:00:54.868Z,4640
2019-01-02T12:01:55.017Z,5100
2019-01-02T12:02:56.051Z,5496
2019-01-02T12:03:56.711Z,5664
2019-01-02T12:04:57.138Z,5784
2019-01-02T12:05:57.277Z,5988
2019-01-02T12:06:58.251Z,5684
2019-01-02T12:08:04.239Z,7488
2019-01-02T12:08:14.274Z,7904
2019-01-02T12:09:11.709Z,6596
2019-01-02T12:10:12.146Z,7020
2019-01-02T12:11:13.122Z,5920
2019-01-02T12:12:14.099Z,4936
2019-01-02T12:13:14.521Z,3964
2019-01-02T12:14:15.498Z,3444
2019-01-02T12:15:16.212Z,3252
2019-01-02T12:16:17.198Z,3432
2019-01-02T12:17:17.343Z,3720
2019-01-02T12:18:18.040Z,3552
2019-01-02T12:19:18.970Z,3480
2019-01-02T12:20:19.680Z,3708
2019-01-02T12:21:20.377Z,3896
2019-01-02T12:22:24.207Z,3612
2019-01-02T12:23:23.198Z,3552
2019-01-02T12:24:24.620Z,3376
2019-01-02T12:25:25.374Z,3904
2019-01-02T12:26:26.076Z,4364
2019-01-02T12:27:29.812Z,4428
2019-01-02T12:27:44.329Z,4456
2019-01-02T12:27:56.096Z,4484
2019-01-02T12:28:53.293Z,4552
2019-01-02T12:29:53.711Z,3992
2019-01-02T12:30:55.134Z,3516
2019-01-02T12:31:55.865Z,3736
2019-01-02T12:32:57.005Z,3916
2019-01-02T12:33:57.701Z,3956
2019-01-02T12:34:59.123Z,3640
2019-01-02T12:35:59.567Z,3812
2019-01-02T12:37:00.011Z,3988
2019-01-02T12:38:00.718Z,3696
2019-01-02T12:39:01.268Z,3424
2019-01-02T12:40:01.975Z,3528
2019-01-02T12:41:02.699Z,3656
2019-01-02T12:42:02.844Z,3644
2019-01-02T12:43:03.988Z,3468
2019-01-02T12:44:05.131Z,3048
2019-01-02T12:45:05.553Z,2620
2019-01-02T12:46:07.255Z,2268
2019-01-02T12:47:08.243Z,2180
2019-01-02T12:48:09.222Z,2348
2019-01-02T12:49:10.055Z,2444
2019-01-02T12:50:10.475Z,2528
2019-01-02T12:51:11.902Z,2584
2019-01-02T12:52:12.608Z,2620
2019-01-02T12:53:17.396Z,2740
2019-01-02T12:53:27.342Z,2760
2019-01-02T12:54:25.304Z,2844
2019-01-02T12:55:26.282Z,2744
2019-01-02T12:56:26.423Z,2624
2019-01-02T12:57:28.149Z,2592
2019-01-02T12:58:28.574Z,2636
2019-01-02T12:59:29.309Z,2716
2019-01-02T13:00:30.563Z,2980
2019-01-02T13:01:34.999Z,3348
2019-01-02T13:02:32.934Z,3676
2019-01-02T13:03:35.219Z,3996
2019-01-02T13:04:36.050Z,4192
2019-01-02T13:05:37.193Z,4132
2019-01-02T13:06:38.330Z,3960
2019-01-02T13:07:46.109Z,3752
2019-01-02T13:07:52.588Z,3736
2019-01-02T13:08:52.914Z,3716
2019-01-02T13:09:56.786Z,3660
2019-01-02T13:10:54.614Z,3716
2019-01-02T13:11:55.757Z,3644
2019-01-02T13:12:56.945Z,3460
2019-01-02T13:13:57.414Z,3124
2019-01-02T13:14:57.835Z,2756
2019-01-02T13:15:59.256Z,2452
2019-01-02T13:16:59.680Z,2228
2019-01-02T13:18:00.824Z,2136
2019-01-02T13:19:01.395Z,2104
2019-01-02T13:20:02.700Z,2008
2019-01-02T13:21:03.119Z,1868
2019-01-02T13:22:06.243Z,1776
2019-01-02T13:23:07.968Z,1768
2019-01-02T13:24:08.031Z,1844
2019-01-02T13:25:10.428Z,1992
2019-01-02T13:26:11.220Z,2184
2019-01-02T13:27:10.237Z,2228
2019-01-02T13:28:11.381Z,2208
2019-01-02T13:29:12.322Z,2132
2019-01-02T13:30:13.298Z,2064
2019-01-02T13:31:13.437Z,1928
2019-01-02T13:32:14.137Z,1852
2019-01-02T13:33:14.281Z,1868
2019-01-02T13:34:15.423Z,2116
2019-01-02T13:35:18.596Z,2200
2019-01-02T13:36:18.288Z,2080
2019-01-02T13:37:18.752Z,2028
2019-01-02T13:38:19.452Z,1952
2019-01-02T13:39:20.289Z,1676
2019-01-02T13:40:20.711Z,1304
2019-01-02T13:41:21.939Z,1112
2019-01-02T13:42:22.365Z,1088
2019-01-02T13:43:28.273Z,1124
2019-01-02T13:43:39.707Z,1144
2019-01-02T13:43:51.407Z,1160
2019-01-02T13:44:47.359Z,1148
2019-01-02T13:45:48.333Z,1096
2019-01-02T13:46:48.476Z,1180
2019-01-02T13:47:49.898Z,1492
2019-01-02T13:48:50.039Z,1828
2019-01-02T13:49:56.689Z,2124
2019-01-02T13:50:07.796Z,2140
2019-01-02T13:50:20.071Z,2192
2019-01-02T13:50:28.950Z,2228
2019-01-02T13:51:33.188Z,2264